sensor_id;sensor_type;location;lat;lon;timestamp;pressure;altitude;pressure_sealevel;temperature;humidity
25526;BME280;13424;48.424;11.258;2023-01-29T00:01:59;96494.19;;;2.80;75.64
25526;BME280;13424;48.424;11.258;2023-01-29T00:04:24;96497.78;;;2.87;75.12
25526;BME280;13424;48.424;11.258;2023-01-29T00:06:50;96497.84;;;2.63;75.56
25526;BME280;13424;48.424;11.258;2023-01-29T00:09:16;96499.06;;;2.99;75.07
25526;BME280;13424;48.424;11.258;2023-01-29T00:11:47;96503.72;;;2.81;75.45
25526;BME280;13424;48.424;11.258;2023-01-29T00:14:13;96504.88;;;2.87;75.27
25526;BME280;13424;48.424;11.258;2023-01-29T00:16:38;96504.25;;;2.60;76.35
25526;BME280;13424;48.424;11.258;2023-01-29T00:19:04;96509.31;;;2.94;75.58
25526;BME280;13424;48.424;11.258;2023-01-29T00:21:30;96498.84;;;2.70;76.55
25526;BME280;13424;48.424;11.258;2023-01-29T00:23:57;96500.91;;;2.91;75.56
25526;BME280;13424;48.424;11.258;2023-01-29T00:26:23;96499.47;;;2.80;76.32
25526;BME280;13424;48.424;11.258;2023-01-29T00:28:49;96504.56;;;2.82;75.23
25526;BME280;13424;48.424;11.258;2023-01-29T00:31:21;96502.41;;;2.85;75.65
25526;BME280;13424;48.424;11.258;2023-01-29T00:33:48;96509.00;;;2.81;75.05
25526;BME280;13424;48.424;11.258;2023-01-29T00:36:15;96511.59;;;2.97;74.97
25526;BME280;13424;48.424;11.258;2023-01-29T00:38:42;96502.97;;;2.56;75.78
25526;BME280;13424;48.424;11.258;2023-01-29T00:41:14;96507.72;;;2.52;76.07
25526;BME280;13424;48.424;11.258;2023-01-29T00:44:00;96507.03;;;2.75;75.52
25526;BME280;13424;48.424;11.258;2023-01-29T00:46:44;96502.13;;;2.72;74.64
25526;BME280;13424;48.424;11.258;2023-01-29T00:49:10;96505.53;;;2.80;74.86
25526;BME280;13424;48.424;11.258;2023-01-29T00:51:37;96498.13;;;2.76;74.92
25526;BME280;13424;48.424;11.258;2023-01-29T00:54:09;96496.81;;;2.80;75.13
25526;BME280;13424;48.424;11.258;2023-01-29T00:56:36;96492.09;;;3.06;73.97
25526;BME280;13424;48.424;11.258;2023-01-29T00:59:03;96491.25;;;3.14;73.65
25526;BME280;13424;48.424;11.258;2023-01-29T01:01:29;96502.69;;;2.98;74.09
25526;BME280;13424;48.424;11.258;2023-01-29T01:04:13;96503.81;;;1.75;78.90
25526;BME280;13424;48.424;11.258;2023-01-29T01:06:48;96497.31;;;2.75;75.05
25526;BME280;13424;48.424;11.258;2023-01-29T01:09:14;96489.00;;;3.03;74.43
25526;BME280;13424;48.424;11.258;2023-01-29T01:12:00;96508.75;;;3.07;73.95
25526;BME280;13424;48.424;11.258;2023-01-29T01:14:27;96511.94;;;2.94;74.33
25526;BME280;13424;48.424;11.258;2023-01-29T01:16:52;96513.59;;;3.34;73.13
25526;BME280;13424;48.424;11.258;2023-01-29T01:19:20;96499.13;;;2.75;74.40
25526;BME280;13424;48.424;11.258;2023-01-29T01:21:48;96504.53;;;2.90;74.37
25526;BME280;13424;48.424;11.258;2023-01-29T01:24:14;96514.53;;;3.02;73.81
25526;BME280;13424;48.424;11.258;2023-01-29T01:26:40;96507.94;;;2.98;73.61
25526;BME280;13424;48.424;11.258;2023-01-29T01:29:06;96508.38;;;2.71;74.46
25526;BME280;13424;48.424;11.258;2023-01-29T01:31:31;96509.38;;;2.70;74.57
25526;BME280;13424;48.424;11.258;2023-01-29T01:34:00;96501.81;;;2.50;75.49
25526;BME280;13424;48.424;11.258;2023-01-29T01:36:25;96493.44;;;2.47;76.03
25526;BME280;13424;48.424;11.258;2023-01-29T01:38:51;96500.03;;;2.35;76.50
25526;BME280;13424;48.424;11.258;2023-01-29T01:41:20;96496.53;;;2.59;75.20
25526;BME280;13424;48.424;11.258;2023-01-29T01:43:56;96496.41;;;2.36;75.30
25526;BME280;13424;48.424;11.258;2023-01-29T01:46:23;96488.63;;;2.67;75.46
25526;BME280;13424;48.424;11.258;2023-01-29T01:48:55;96488.63;;;2.59;75.34
25526;BME280;13424;48.424;11.258;2023-01-29T01:51:23;96493.84;;;2.83;73.89
25526;BME280;13424;48.424;11.258;2023-01-29T01:53:56;96486.72;;;2.12;75.99
25526;BME280;13424;48.424;11.258;2023-01-29T02:00:29;96507.47;;;3.03;73.02
25526;BME280;13424;48.424;11.258;2023-01-29T02:02:55;96500.63;;;2.77;73.63
25526;BME280;13424;48.424;11.258;2023-01-29T02:05:42;96497.81;;;2.79;73.46
25526;BME280;13424;48.424;11.258;2023-01-29T02:08:54;96494.63;;;2.92;73.16
25526;BME280;13424;48.424;11.258;2023-01-29T02:11:44;96492.88;;;2.76;74.58
25526;BME280;13424;48.424;11.258;2023-01-29T02:14:10;96487.47;;;2.69;73.67
25526;BME280;13424;48.424;11.258;2023-01-29T02:16:36;96479.75;;;2.51;75.09
25526;BME280;13424;48.424;11.258;2023-01-29T02:19:06;96489.00;;;2.47;75.90
25526;BME280;13424;48.424;11.258;2023-01-29T02:25:11;96485.84;;;2.52;75.83
25526;BME280;13424;48.424;11.258;2023-01-29T02:34:10;96477.94;;;2.52;75.53
25526;BME280;13424;48.424;11.258;2023-01-29T02:36:50;96477.13;;;2.43;75.64
25526;BME280;13424;48.424;11.258;2023-01-29T02:39:32;96476.50;;;2.41;76.50
25526;BME280;13424;48.424;11.258;2023-01-29T02:42:12;96477.59;;;3.11;73.07
25526;BME280;13424;48.424;11.258;2023-01-29T02:44:54;96484.25;;;2.90;74.41
25526;BME280;13424;48.424;11.258;2023-01-29T02:47:51;96475.75;;;2.72;75.27
25526;BME280;13424;48.424;11.258;2023-01-29T02:50:46;96483.66;;;2.80;75.37
25526;BME280;13424;48.424;11.258;2023-01-29T02:53:34;96482.00;;;2.79;75.05
25526;BME280;13424;48.424;11.258;2023-01-29T02:56:16;96481.00;;;2.80;75.19
25526;BME280;13424;48.424;11.258;2023-01-29T02:59:09;96484.94;;;2.84;74.33
25526;BME280;13424;48.424;11.258;2023-01-29T03:01:57;96483.22;;;2.52;75.26
25526;BME280;13424;48.424;11.258;2023-01-29T03:04:31;96481.75;;;2.49;76.18
25526;BME280;13424;48.424;11.258;2023-01-29T03:07:04;96483.88;;;3.10;74.36
25526;BME280;13424;48.424;11.258;2023-01-29T03:09:44;96486.84;;;3.38;72.52
25526;BME280;13424;48.424;11.258;2023-01-29T03:12:21;96483.91;;;1.73;77.78
25526;BME280;13424;48.424;11.258;2023-01-29T03:15:10;96494.94;;;1.92;78.23
25526;BME280;13424;48.424;11.258;2023-01-29T03:17:54;96482.91;;;2.47;76.63
25526;BME280;13424;48.424;11.258;2023-01-29T03:20:26;96474.47;;;3.07;73.88
25526;BME280;13424;48.424;11.258;2023-01-29T03:23:05;96481.16;;;3.26;72.44
25526;BME280;13424;48.424;11.258;2023-01-29T03:25:52;96469.75;;;2.94;74.09
25526;BME280;13424;48.424;11.258;2023-01-29T03:28:38;96472.69;;;2.99;74.88
25526;BME280;13424;48.424;11.258;2023-01-29T03:35:08;96462.53;;;2.88;74.54
25526;BME280;13424;48.424;11.258;2023-01-29T03:37:43;96477.63;;;3.02;74.42
25526;BME280;13424;48.424;11.258;2023-01-29T03:40:12;96478.59;;;3.10;73.74
25526;BME280;13424;48.424;11.258;2023-01-29T03:43:08;96472.94;;;2.82;75.14
25526;BME280;13424;48.424;11.258;2023-01-29T03:51:29;96472.13;;;2.73;75.39
25526;BME280;13424;48.424;11.258;2023-01-29T03:54:20;96464.47;;;2.55;75.62
25526;BME280;13424;48.424;11.258;2023-01-29T03:57:14;96468.94;;;2.94;75.06
25526;BME280;13424;48.424;11.258;2023-01-29T03:59:55;96464.22;;;3.20;73.70
25526;BME280;13424;48.424;11.258;2023-01-29T04:03:01;96476.16;;;3.31;73.34
25526;BME280;13424;48.424;11.258;2023-01-29T04:05:41;96473.66;;;3.06;74.05
25526;BME280;13424;48.424;11.258;2023-01-29T04:08:23;96475.97;;;3.41;72.60
25526;BME280;13424;48.424;11.258;2023-01-29T04:10:50;96477.75;;;3.48;72.47
25526;BME280;13424;48.424;11.258;2023-01-29T04:13:19;96478.00;;;2.19;76.96
25526;BME280;13424;48.424;11.258;2023-01-29T04:15:57;96485.19;;;2.58;76.09
25526;BME280;13424;48.424;11.258;2023-01-29T04:18:54;96477.84;;;2.93;75.11
25526;BME280;13424;48.424;11.258;2023-01-29T04:21:28;96475.56;;;2.82;75.28
25526;BME280;13424;48.424;11.258;2023-01-29T04:24:05;96477.94;;;2.52;76.24
25526;BME280;13424;48.424;11.258;2023-01-29T04:29:32;96476.44;;;2.66;76.18
25526;BME280;13424;48.424;11.258;2023-01-29T04:32:40;96479.00;;;3.29;73.50
25526;BME280;13424;48.424;11.258;2023-01-29T04:39:33;96463.66;;;3.33;71.65
25526;BME280;13424;48.424;11.258;2023-01-29T04:42:14;96472.00;;;3.05;72.66
25526;BME280;13424;48.424;11.258;2023-01-29T04:44:57;96471.25;;;3.28;72.60
25526;BME280;13424;48.424;11.258;2023-01-29T04:47:41;96466.44;;;3.31;72.79
25526;BME280;13424;48.424;11.258;2023-01-29T04:56:12;96480.25;;;3.11;73.11
25526;BME280;13424;48.424;11.258;2023-01-29T04:58:46;96485.03;;;3.07;73.73
25526;BME280;13424;48.424;11.258;2023-01-29T05:01:15;96486.94;;;2.82;74.50
25526;BME280;13424;48.424;11.258;2023-01-29T05:03:43;96489.31;;;3.00;73.94
25526;BME280;13424;48.424;11.258;2023-01-29T05:06:12;96492.13;;;2.98;73.98
25526;BME280;13424;48.424;11.258;2023-01-29T05:08:39;96491.47;;;3.04;73.50
25526;BME280;13424;48.424;11.258;2023-01-29T05:11:05;96493.75;;;3.07;73.25
25526;BME280;13424;48.424;11.258;2023-01-29T05:13:35;96497.22;;;1.71;78.87
25526;BME280;13424;48.424;11.258;2023-01-29T05:16:16;96499.50;;;2.64;75.84
25526;BME280;13424;48.424;11.258;2023-01-29T05:18:45;96512.91;;;3.01;74.59
25526;BME280;13424;48.424;11.258;2023-01-29T05:21:11;96500.38;;;3.03;74.12
25526;BME280;13424;48.424;11.258;2023-01-29T05:23:37;96506.69;;;3.33;72.77
25526;BME280;13424;48.424;11.258;2023-01-29T05:26:04;96502.81;;;3.05;72.56
25526;BME280;13424;48.424;11.258;2023-01-29T05:28:29;96499.50;;;3.11;72.18
25526;BME280;13424;48.424;11.258;2023-01-29T05:31:02;96494.16;;;2.88;72.38
25526;BME280;13424;48.424;11.258;2023-01-29T05:33:30;96491.06;;;2.76;72.66
25526;BME280;13424;48.424;11.258;2023-01-29T05:35:59;96489.16;;;3.10;72.82
25526;BME280;13424;48.424;11.258;2023-01-29T05:38:25;96497.72;;;3.03;73.03
25526;BME280;13424;48.424;11.258;2023-01-29T05:40:51;96497.53;;;3.13;72.47
25526;BME280;13424;48.424;11.258;2023-01-29T05:43:24;96491.56;;;3.19;72.37
25526;BME280;13424;48.424;11.258;2023-01-29T05:45:58;96489.63;;;3.13;72.27
25526;BME280;13424;48.424;11.258;2023-01-29T05:48:25;96494.47;;;2.93;72.62
25526;BME280;13424;48.424;11.258;2023-01-29T05:50:53;96483.41;;;2.42;73.50
25526;BME280;13424;48.424;11.258;2023-01-29T05:53:19;96489.66;;;2.41;73.51
25526;BME280;13424;48.424;11.258;2023-01-29T05:55:46;96492.25;;;2.66;73.59
25526;BME280;13424;48.424;11.258;2023-01-29T05:58:12;96496.28;;;3.01;72.83
25526;BME280;13424;48.424;11.258;2023-01-29T06:00:39;96492.81;;;2.92;72.62
25526;BME280;13424;48.424;11.258;2023-01-29T06:03:11;96489.22;;;3.32;71.39
25526;BME280;13424;48.424;11.258;2023-01-29T06:05:38;96491.66;;;3.34;71.14
25526;BME280;13424;48.424;11.258;2023-01-29T06:08:05;96485.06;;;2.19;75.08
25526;BME280;13424;48.424;11.258;2023-01-29T06:10:31;96483.72;;;3.03;72.58
25526;BME280;13424;48.424;11.258;2023-01-29T06:12:59;96487.59;;;3.23;71.48
25526;BME280;13424;48.424;11.258;2023-01-29T06:15:34;96484.47;;;3.20;70.63
25526;BME280;13424;48.424;11.258;2023-01-29T06:17:59;96486.47;;;3.18;70.84
25526;BME280;13424;48.424;11.258;2023-01-29T06:20:25;96489.16;;;3.10;71.56
25526;BME280;13424;48.424;11.258;2023-01-29T06:22:51;96494.03;;;3.21;70.95
25526;BME280;13424;48.424;11.258;2023-01-29T06:25:17;96494.94;;;2.97;71.56
25526;BME280;13424;48.424;11.258;2023-01-29T06:27:42;96503.84;;;2.96;72.76
25526;BME280;13424;48.424;11.258;2023-01-29T06:30:09;96496.91;;;2.31;73.93
25526;BME280;13424;48.424;11.258;2023-01-29T06:32:37;96500.84;;;2.35;74.79
25526;BME280;13424;48.424;11.258;2023-01-29T06:35:03;96502.19;;;2.39;75.67
25526;BME280;13424;48.424;11.258;2023-01-29T06:37:29;96491.88;;;3.24;71.73
25526;BME280;13424;48.424;11.258;2023-01-29T06:39:55;96486.53;;;3.01;71.96
25526;BME280;13424;48.424;11.258;2023-01-29T06:42:20;96489.06;;;3.26;71.53
25526;BME280;13424;48.424;11.258;2023-01-29T06:44:54;96481.56;;;3.06;72.06
25526;BME280;13424;48.424;11.258;2023-01-29T06:47:20;96483.16;;;3.16;72.94
25526;BME280;13424;48.424;11.258;2023-01-29T06:49:46;96485.81;;;3.16;73.57
25526;BME280;13424;48.424;11.258;2023-01-29T06:52:11;96487.38;;;3.02;73.21
25526;BME280;13424;48.424;11.258;2023-01-29T06:54:44;96472.16;;;3.12;73.43
25526;BME280;13424;48.424;11.258;2023-01-29T06:57:20;96469.53;;;3.12;73.21
25526;BME280;13424;48.424;11.258;2023-01-29T06:59:45;96468.38;;;3.06;73.57
25526;BME280;13424;48.424;11.258;2023-01-29T07:02:11;96466.81;;;2.89;73.47
25526;BME280;13424;48.424;11.258;2023-01-29T07:04:37;96461.41;;;2.83;73.95
25526;BME280;13424;48.424;11.258;2023-01-29T07:07:04;96460.25;;;2.85;74.45
25526;BME280;13424;48.424;11.258;2023-01-29T07:09:30;96470.97;;;3.15;73.02
25526;BME280;13424;48.424;11.258;2023-01-29T07:11:55;96465.75;;;3.06;73.39
25526;BME280;13424;48.424;11.258;2023-01-29T07:14:21;96465.81;;;2.90;73.10
25526;BME280;13424;48.424;11.258;2023-01-29T07:17:16;96466.06;;;3.12;73.07
25526;BME280;13424;48.424;11.258;2023-01-29T07:19:44;96464.94;;;3.37;71.68
25526;BME280;13424;48.424;11.258;2023-01-29T07:22:09;96465.16;;;3.27;72.53
25526;BME280;13424;48.424;11.258;2023-01-29T07:24:35;96472.53;;;3.40;71.74
25526;BME280;13424;48.424;11.258;2023-01-29T07:27:01;96483.25;;;3.61;71.54
25526;BME280;13424;48.424;11.258;2023-01-29T07:29:27;96480.03;;;3.51;71.44
25526;BME280;13424;48.424;11.258;2023-01-29T07:31:54;96479.81;;;3.30;71.76
25526;BME280;13424;48.424;11.258;2023-01-29T07:34:20;96485.63;;;3.56;70.52
25526;BME280;13424;48.424;11.258;2023-01-29T07:41:27;96479.16;;;3.59;70.40
25526;BME280;13424;48.424;11.258;2023-01-29T07:43:53;96478.31;;;3.35;71.38
25526;BME280;13424;48.424;11.258;2023-01-29T07:46:19;96468.75;;;3.03;69.31
25526;BME280;13424;48.424;11.258;2023-01-29T07:48:45;96473.19;;;3.65;67.91
25526;BME280;13424;48.424;11.258;2023-01-29T07:51:11;96472.34;;;3.42;68.77
25526;BME280;13424;48.424;11.258;2023-01-29T07:53:37;96471.00;;;3.69;68.81
25526;BME280;13424;48.424;11.258;2023-01-29T07:56:03;96479.22;;;3.20;70.80
25526;BME280;13424;48.424;11.258;2023-01-29T07:58:31;96480.53;;;3.16;71.80
25526;BME280;13424;48.424;11.258;2023-01-29T08:00:56;96483.06;;;3.40;71.68
25526;BME280;13424;48.424;11.258;2023-01-29T08:03:24;96484.19;;;3.69;70.31
25526;BME280;13424;48.424;11.258;2023-01-29T08:09:55;96492.81;;;3.62;70.70
25526;BME280;13424;48.424;11.258;2023-01-29T08:12:21;96497.44;;;3.29;70.53
25526;BME280;13424;48.424;11.258;2023-01-29T08:14:47;96490.59;;;3.51;71.13
25526;BME280;13424;48.424;11.258;2023-01-29T08:17:13;96486.81;;;3.46;71.23
25526;BME280;13424;48.424;11.258;2023-01-29T08:19:39;96497.34;;;3.77;69.68
25526;BME280;13424;48.424;11.258;2023-01-29T08:22:05;96497.63;;;3.59;70.10
25526;BME280;13424;48.424;11.258;2023-01-29T08:24:31;96501.47;;;3.17;71.53
25526;BME280;13424;48.424;11.258;2023-01-29T08:26:57;96502.81;;;3.05;72.45
25526;BME280;13424;48.424;11.258;2023-01-29T08:29:23;96509.06;;;2.48;72.71
25526;BME280;13424;48.424;11.258;2023-01-29T08:35:31;96519.09;;;1.72;75.90
25526;BME280;13424;48.424;11.258;2023-01-29T08:38:01;96518.63;;;2.33;71.96
25526;BME280;13424;48.424;11.258;2023-01-29T08:40:30;96524.38;;;3.17;69.41
25526;BME280;13424;48.424;11.258;2023-01-29T08:43:04;96530.47;;;2.13;74.88
25526;BME280;13424;48.424;11.258;2023-01-29T08:45:36;96535.06;;;2.60;73.82
25526;BME280;13424;48.424;11.258;2023-01-29T08:48:04;96535.09;;;2.27;74.54
25526;BME280;13424;48.424;11.258;2023-01-29T08:50:32;96536.06;;;2.42;73.61
25526;BME280;13424;48.424;11.258;2023-01-29T08:53:01;96532.78;;;2.48;74.78
25526;BME280;13424;48.424;11.258;2023-01-29T08:55:28;96528.81;;;2.44;74.56
25526;BME280;13424;48.424;11.258;2023-01-29T08:57:54;96535.84;;;1.71;79.13
25526;BME280;13424;48.424;11.258;2023-01-29T09:00:21;96531.28;;;2.05;75.58
25526;BME280;13424;48.424;11.258;2023-01-29T09:02:47;96536.41;;;1.99;75.37
25526;BME280;13424;48.424;11.258;2023-01-29T09:05:13;96538.38;;;3.56;72.22
25526;BME280;13424;48.424;11.258;2023-01-29T09:07:40;96527.97;;;3.86;69.77
25526;BME280;13424;48.424;11.258;2023-01-29T09:10:06;96541.72;;;4.04;69.57
25526;BME280;13424;48.424;11.258;2023-01-29T09:12:32;96540.53;;;3.84;70.13
25526;BME280;13424;48.424;11.258;2023-01-29T09:14:58;96543.56;;;3.73;70.78
25526;BME280;13424;48.424;11.258;2023-01-29T09:17:24;96543.22;;;3.76;70.75
25526;BME280;13424;48.424;11.258;2023-01-29T09:23:58;96558.56;;;3.41;71.68
25526;BME280;13424;48.424;11.258;2023-01-29T09:26:27;96558.31;;;3.20;72.69
25526;BME280;13424;48.424;11.258;2023-01-29T09:28:52;96554.47;;;2.75;72.70
25526;BME280;13424;48.424;11.258;2023-01-29T09:31:19;96564.72;;;2.62;73.43
25526;BME280;13424;48.424;11.258;2023-01-29T09:33:46;96561.75;;;2.57;75.79
25526;BME280;13424;48.424;11.258;2023-01-29T09:36:43;96565.69;;;2.69;74.14
25526;BME280;13424;48.424;11.258;2023-01-29T09:39:11;96573.44;;;2.46;73.97
25526;BME280;13424;48.424;11.258;2023-01-29T09:41:55;96565.56;;;3.18;72.06
25526;BME280;13424;48.424;11.258;2023-01-29T09:44:56;96563.69;;;2.71;72.40
25526;BME280;13424;48.424;11.258;2023-01-29T09:47:25;96568.03;;;3.19;72.41
25526;BME280;13424;48.424;11.258;2023-01-29T09:49:59;96566.72;;;3.54;70.35
25526;BME280;13424;48.424;11.258;2023-01-29T09:52:39;96556.22;;;3.46;69.00
25526;BME280;13424;48.424;11.258;2023-01-29T09:58:10;96558.03;;;4.31;68.08
25526;BME280;13424;48.424;11.258;2023-01-29T10:01:05;96558.97;;;4.38;66.48
25526;BME280;13424;48.424;11.258;2023-01-29T10:04:00;96548.25;;;3.54;67.78
25526;BME280;13424;48.424;11.258;2023-01-29T10:09:53;96561.53;;;4.23;66.47
25526;BME280;13424;48.424;11.258;2023-01-29T10:12:37;96560.69;;;3.77;66.18
25526;BME280;13424;48.424;11.258;2023-01-29T10:15:41;96563.38;;;4.23;66.43
25526;BME280;13424;48.424;11.258;2023-01-29T10:18:48;96555.34;;;3.85;64.99
25526;BME280;13424;48.424;11.258;2023-01-29T10:25:03;96550.31;;;2.97;68.13
25526;BME280;13424;48.424;11.258;2023-01-29T10:27:35;96546.72;;;3.29;67.53
25526;BME280;13424;48.424;11.258;2023-01-29T10:30:17;96549.78;;;4.48;64.97
25526;BME280;13424;48.424;11.258;2023-01-29T10:32:47;96542.31;;;3.21;66.81
25526;BME280;13424;48.424;11.258;2023-01-29T10:35:23;96533.28;;;3.47;65.94
25526;BME280;13424;48.424;11.258;2023-01-29T10:38:38;96534.63;;;4.28;63.92
25526;BME280;13424;48.424;11.258;2023-01-29T10:47:04;96532.28;;;3.56;65.61
25526;BME280;13424;48.424;11.258;2023-01-29T10:50:12;96531.50;;;4.24;64.33
25526;BME280;13424;48.424;11.258;2023-01-29T10:53:13;96529.38;;;3.74;66.27
25526;BME280;13424;48.424;11.258;2023-01-29T10:56:24;96521.91;;;3.46;66.69
25526;BME280;13424;48.424;11.258;2023-01-29T10:59:02;96517.97;;;4.42;63.92
25526;BME280;13424;48.424;11.258;2023-01-29T11:01:30;96503.34;;;4.69;63.56
25526;BME280;13424;48.424;11.258;2023-01-29T11:04:03;96503.44;;;4.00;65.64
25526;BME280;13424;48.424;11.258;2023-01-29T11:06:33;96509.06;;;4.43;65.32
25526;BME280;13424;48.424;11.258;2023-01-29T11:09:05;96500.53;;;3.95;65.39
25526;BME280;13424;48.424;11.258;2023-01-29T11:11:47;96497.13;;;4.47;64.04
25526;BME280;13424;48.424;11.258;2023-01-29T11:14:29;96490.75;;;4.56;63.91
25526;BME280;13424;48.424;11.258;2023-01-29T11:16:56;96491.34;;;4.66;62.99
25526;BME280;13424;48.424;11.258;2023-01-29T11:19:43;96489.84;;;3.66;64.52
25526;BME280;13424;48.424;11.258;2023-01-29T11:22:24;96485.78;;;4.24;63.89
25526;BME280;13424;48.424;11.258;2023-01-29T11:25:17;96475.75;;;4.71;61.46
25526;BME280;13424;48.424;11.258;2023-01-29T11:27:49;96471.47;;;4.85;61.45
25526;BME280;13424;48.424;11.258;2023-01-29T11:30:30;96467.38;;;4.83;60.80
25526;BME280;13424;48.424;11.258;2023-01-29T11:35:31;96457.13;;;5.09;60.72
25526;BME280;13424;48.424;11.258;2023-01-29T11:40:41;96446.75;;;3.73;62.55
25526;BME280;13424;48.424;11.258;2023-01-29T11:45:52;96450.50;;;4.69;60.36
25526;BME280;13424;48.424;11.258;2023-01-29T11:48:22;96453.44;;;4.74;60.69
25526;BME280;13424;48.424;11.258;2023-01-29T11:55:01;96450.19;;;4.49;61.51
25526;BME280;13424;48.424;11.258;2023-01-29T11:57:36;96457.31;;;4.63;63.09
25526;BME280;13424;48.424;11.258;2023-01-29T12:00:09;96457.16;;;4.80;62.40
25526;BME280;13424;48.424;11.258;2023-01-29T12:03:06;96454.91;;;4.24;63.63
25526;BME280;13424;48.424;11.258;2023-01-29T12:05:37;96468.50;;;3.98;63.88
25526;BME280;13424;48.424;11.258;2023-01-29T12:08:03;96468.50;;;3.98;64.05
25526;BME280;13424;48.424;11.258;2023-01-29T12:10:40;96459.44;;;4.15;63.21
25526;BME280;13424;48.424;11.258;2023-01-29T12:15:38;96449.69;;;4.83;61.37
25526;BME280;13424;48.424;11.258;2023-01-29T12:18:20;96447.56;;;4.79;61.87
25526;BME280;13424;48.424;11.258;2023-01-29T12:21:02;96434.38;;;4.79;61.79
25526;BME280;13424;48.424;11.258;2023-01-29T12:24:06;96428.88;;;4.95;62.62
25526;BME280;13424;48.424;11.258;2023-01-29T12:26:48;96427.63;;;4.61;62.52
25526;BME280;13424;48.424;11.258;2023-01-29T12:33:42;96406.00;;;4.28;62.74
25526;BME280;13424;48.424;11.258;2023-01-29T12:36:24;96401.78;;;4.04;64.88
25526;BME280;13424;48.424;11.258;2023-01-29T12:38:52;96408.66;;;4.58;62.61
25526;BME280;13424;48.424;11.258;2023-01-29T12:41:27;96397.53;;;4.77;63.46
25526;BME280;13424;48.424;11.258;2023-01-29T12:44:01;96398.09;;;4.72;62.96
25526;BME280;13424;48.424;11.258;2023-01-29T12:46:37;96394.19;;;4.68;63.19
25526;BME280;13424;48.424;11.258;2023-01-29T12:49:13;96384.50;;;4.31;64.67
25526;BME280;13424;48.424;11.258;2023-01-29T12:51:49;96385.81;;;4.35;63.46
25526;BME280;13424;48.424;11.258;2023-01-29T12:54:23;96380.03;;;4.32;63.14
25526;BME280;13424;48.424;11.258;2023-01-29T12:56:55;96376.88;;;4.51;62.88
25526;BME280;13424;48.424;11.258;2023-01-29T12:59:27;96373.38;;;4.65;63.11
25526;BME280;13424;48.424;11.258;2023-01-29T13:02:05;96369.09;;;4.64;62.86
25526;BME280;13424;48.424;11.258;2023-01-29T13:05:08;96369.09;;;4.64;62.37
25526;BME280;13424;48.424;11.258;2023-01-29T13:07:44;96360.66;;;4.69;62.43
25526;BME280;13424;48.424;11.258;2023-01-29T13:10:20;96361.38;;;4.63;63.17
25526;BME280;13424;48.424;11.258;2023-01-29T13:17:05;96365.25;;;4.82;62.88
25526;BME280;13424;48.424;11.258;2023-01-29T13:19:39;96356.00;;;4.56;63.65
25526;BME280;13424;48.424;11.258;2023-01-29T13:22:25;96351.94;;;3.86;64.92
25526;BME280;13424;48.424;11.258;2023-01-29T13:24:55;96358.34;;;3.92;63.15
25526;BME280;13424;48.424;11.258;2023-01-29T13:27:32;96357.47;;;4.14;64.08
25526;BME280;13424;48.424;11.258;2023-01-29T13:29:59;96347.16;;;4.34;64.06
25526;BME280;13424;48.424;11.258;2023-01-29T13:32:31;96351.47;;;4.20;64.24
25526;BME280;13424;48.424;11.258;2023-01-29T13:35:03;96346.81;;;4.52;63.62
25526;BME280;13424;48.424;11.258;2023-01-29T13:37:35;96341.34;;;4.24;64.14
25526;BME280;13424;48.424;11.258;2023-01-29T13:40:04;96343.25;;;4.15;63.44
25526;BME280;13424;48.424;11.258;2023-01-29T13:42:46;96331.97;;;4.22;64.39
25526;BME280;13424;48.424;11.258;2023-01-29T13:47:51;96321.84;;;4.25;64.46
25526;BME280;13424;48.424;11.258;2023-01-29T13:50:28;96332.94;;;3.91;64.64
25526;BME280;13424;48.424;11.258;2023-01-29T13:53:02;96328.75;;;4.41;64.33
25526;BME280;13424;48.424;11.258;2023-01-29T13:55:35;96329.78;;;4.40;63.47
25526;BME280;13424;48.424;11.258;2023-01-29T13:58:07;96333.19;;;3.81;64.21
25526;BME280;13424;48.424;11.258;2023-01-29T14:05:55;96328.66;;;4.49;63.64
25526;BME280;13424;48.424;11.258;2023-01-29T14:13:48;96312.91;;;3.21;66.88
25526;BME280;13424;48.424;11.258;2023-01-29T14:18:59;96322.41;;;4.20;64.62
25526;BME280;13424;48.424;11.258;2023-01-29T14:21:29;96328.03;;;4.32;64.46
25526;BME280;13424;48.424;11.258;2023-01-29T14:24:22;96324.06;;;4.36;63.09
25526;BME280;13424;48.424;11.258;2023-01-29T14:26:55;96320.06;;;4.11;64.11
25526;BME280;13424;48.424;11.258;2023-01-29T14:29:26;96329.88;;;4.46;64.53
25526;BME280;13424;48.424;11.258;2023-01-29T14:31:57;96337.25;;;4.51;63.13
25526;BME280;13424;48.424;11.258;2023-01-29T14:34:47;96324.78;;;4.30;64.03
25526;BME280;13424;48.424;11.258;2023-01-29T14:41:25;96328.00;;;3.73;64.50
25526;BME280;13424;48.424;11.258;2023-01-29T14:47:24;96326.41;;;4.31;64.76
25526;BME280;13424;48.424;11.258;2023-01-29T14:50:02;96325.88;;;4.36;63.91
25526;BME280;13424;48.424;11.258;2023-01-29T14:57:02;96319.94;;;3.52;67.15
25526;BME280;13424;48.424;11.258;2023-01-29T14:59:37;96318.19;;;3.44;66.92
25526;BME280;13424;48.424;11.258;2023-01-29T15:02:39;96315.84;;;3.26;67.00
25526;BME280;13424;48.424;11.258;2023-01-29T15:05:17;96315.44;;;3.38;66.44
25526;BME280;13424;48.424;11.258;2023-01-29T15:07:56;96319.13;;;3.51;66.13
25526;BME280;13424;48.424;11.258;2023-01-29T15:10:55;96333.88;;;3.60;66.39
25526;BME280;13424;48.424;11.258;2023-01-29T15:13:59;96326.25;;;3.66;64.90
25526;BME280;13424;48.424;11.258;2023-01-29T15:16:47;96314.47;;;3.53;65.46
25526;BME280;13424;48.424;11.258;2023-01-29T15:22:43;96337.22;;;3.54;66.57
25526;BME280;13424;48.424;11.258;2023-01-29T15:25:13;96329.34;;;3.08;67.00
25526;BME280;13424;48.424;11.258;2023-01-29T15:27:43;96324.06;;;2.86;68.28
25526;BME280;13424;48.424;11.258;2023-01-29T15:30:21;96323.59;;;3.05;67.94
25526;BME280;13424;48.424;11.258;2023-01-29T15:32:47;96320.53;;;3.39;66.90
25526;BME280;13424;48.424;11.258;2023-01-29T15:35:34;96319.06;;;3.36;67.63
25526;BME280;13424;48.424;11.258;2023-01-29T15:38:17;96318.44;;;3.34;67.51
25526;BME280;13424;48.424;11.258;2023-01-29T15:40:57;96317.63;;;3.34;67.33